createdAt,value
2019-03-29T00:00:38.006Z,0.00
2019-03-29T00:01:37.996Z,0.00
2019-03-29T00:02:38.745Z,0.00
2019-03-29T00:03:37.976Z,0.00
2019-03-29T00:04:38.006Z,0.00
2019-03-29T00:05:37.963Z,0.00
2019-03-29T00:06:37.935Z,0.00
2019-03-29T00:07:39.743Z,0.00
2019-03-29T00:08:38.213Z,0.00
2019-03-29T00:09:38.670Z,0.00
2019-03-29T00:10:37.945Z,0.00
2019-03-29T00:11:38.227Z,0.00
2019-03-29T00:12:37.875Z,0.00
2019-03-29T00:13:37.866Z,0.00
2019-03-29T00:14:37.855Z,0.00
2019-03-29T00:15:38.137Z,0.00
2019-03-29T00:16:38.165Z,0.00
2019-03-29T00:17:37.833Z,0.00
2019-03-29T00:18:37.814Z,0.00
2019-03-29T00:19:37.806Z,0.00
2019-03-29T00:20:37.795Z,0.00
2019-03-29T00:21:39.087Z,0.00
2019-03-29T00:22:38.103Z,0.00
2019-03-29T00:23:37.763Z,0.00
2019-03-29T00:24:37.752Z,0.00
2019-03-29T00:25:37.754Z,0.00
2019-03-29T00:26:37.733Z,0.00
2019-03-29T00:27:37.720Z,0.00
2019-03-29T00:28:37.762Z,0.00
2019-03-29T00:29:37.986Z,0.00
2019-03-29T00:30:37.693Z,0.00
2019-03-29T00:31:37.680Z,0.00
2019-03-29T00:32:37.671Z,0.00
2019-03-29T00:33:37.653Z,0.00
2019-03-29T00:34:37.703Z,0.00
2019-03-29T00:35:37.632Z,0.00
2019-03-29T00:36:38.826Z,0.00
2019-03-29T00:37:37.625Z,0.00
2019-03-29T00:38:37.603Z,0.00
2019-03-29T00:39:37.592Z,0.00
2019-03-29T00:40:37.631Z,0.00
2019-03-29T00:41:37.572Z,0.00
2019-03-29T00:42:37.562Z,0.00
2019-03-29T00:43:37.831Z,0.00
2019-03-29T00:44:37.541Z,0.00
2019-03-29T00:45:37.532Z,0.00
2019-03-29T00:46:37.896Z,0.00
2019-03-29T00:47:37.512Z,0.00
2019-03-29T00:48:37.493Z,0.00
2019-03-29T00:49:37.490Z,0.00
2019-03-29T00:50:37.791Z,0.00
2019-03-29T00:51:37.468Z,0.00
2019-03-29T00:52:37.760Z,0.00
2019-03-29T00:53:37.448Z,0.00
2019-03-29T00:54:37.430Z,0.00
2019-03-29T00:55:37.420Z,0.00
2019-03-29T00:56:37.410Z,0.00
2019-03-29T00:57:37.680Z,0.00
2019-03-29T00:58:37.429Z,0.00
2019-03-29T00:59:37.381Z,0.00
2019-03-29T01:00:38.270Z,0.00
2019-03-29T01:01:37.369Z,0.00
2019-03-29T01:02:37.350Z,0.00
2019-03-29T01:03:37.365Z,0.00
2019-03-29T01:04:37.656Z,0.00
2019-03-29T01:05:37.310Z,0.00
2019-03-29T01:06:37.309Z,0.00
2019-03-29T01:07:37.290Z,0.00
2019-03-29T01:08:37.315Z,0.00
2019-03-29T01:09:37.809Z,0.00
2019-03-29T01:10:37.311Z,0.00
2019-03-29T01:11:37.538Z,0.00
2019-03-29T01:12:37.248Z,0.00
2019-03-29T01:13:37.797Z,0.00
2019-03-29T01:14:37.218Z,0.00
2019-03-29T01:15:37.950Z,0.00
2019-03-29T01:16:37.249Z,0.00
2019-03-29T01:17:37.188Z,0.00
2019-03-29T01:18:39.640Z,0.00
2019-03-29T01:19:37.168Z,0.00
2019-03-29T01:20:37.175Z,0.00
2019-03-29T01:21:37.149Z,0.00
2019-03-29T01:22:37.197Z,0.00
2019-03-29T01:23:37.128Z,0.00
2019-03-29T01:24:37.967Z,0.00
2019-03-29T01:25:37.429Z,0.00
2019-03-29T01:26:37.094Z,0.00
2019-03-29T01:27:37.077Z,0.00
2019-03-29T01:28:38.550Z,0.00
2019-03-29T01:29:37.070Z,0.00
2019-03-29T01:30:37.047Z,0.00
2019-03-29T01:31:37.038Z,0.00
2019-03-29T01:32:37.336Z,0.00
2019-03-29T01:33:37.024Z,0.00
2019-03-29T01:34:37.048Z,0.00
2019-03-29T01:35:37.000Z,0.00
2019-03-29T01:36:36.986Z,0.00
2019-03-29T01:37:36.976Z,0.00
2019-03-29T01:38:36.965Z,0.00
2019-03-29T01:39:37.235Z,0.00
2019-03-29T01:40:36.989Z,0.00
2019-03-29T01:41:36.936Z,0.00
2019-03-29T01:42:37.883Z,0.00
2019-03-29T01:43:36.918Z,0.00
2019-03-29T01:44:36.905Z,0.00
2019-03-29T01:45:36.893Z,0.00
2019-03-29T01:46:37.981Z,0.00
2019-03-29T01:47:36.868Z,0.00
2019-03-29T01:48:36.855Z,0.00
2019-03-29T01:49:37.416Z,0.00
2019-03-29T01:50:36.838Z,0.00
2019-03-29T01:51:36.834Z,0.00
2019-03-29T01:52:36.865Z,0.00
2019-03-29T01:53:38.210Z,0.00
2019-03-29T01:54:36.802Z,0.00
2019-03-29T01:55:36.794Z,0.00
2019-03-29T01:56:36.781Z,0.00
2019-03-29T01:57:36.770Z,0.00
2019-03-29T01:58:36.793Z,0.00
2019-03-29T01:59:36.744Z,0.00
2019-03-29T02:00:37.013Z,0.00
2019-03-29T02:01:36.724Z,0.00
2019-03-29T02:02:36.713Z,0.00
2019-03-29T02:03:36.722Z,0.00
2019-03-29T02:04:36.753Z,0.00
2019-03-29T02:05:36.683Z,0.00
2019-03-29T02:06:36.682Z,0.00
2019-03-29T02:07:37.988Z,0.00
2019-03-29T02:08:37.817Z,0.00
2019-03-29T02:09:36.647Z,0.00
2019-03-29T02:10:36.677Z,0.00
2019-03-29T02:11:36.621Z,0.00
2019-03-29T02:12:36.612Z,0.00
2019-03-29T02:13:36.606Z,0.00
2019-03-29T02:14:36.883Z,0.00
2019-03-29T02:15:37.197Z,0.00
2019-03-29T02:16:36.933Z,0.00
2019-03-29T02:17:36.558Z,0.00
2019-03-29T02:18:36.557Z,0.00
2019-03-29T02:19:36.540Z,0.00
2019-03-29T02:20:36.532Z,0.00
2019-03-29T02:21:36.805Z,0.00
2019-03-29T02:22:37.088Z,0.00
2019-03-29T02:23:36.505Z,0.00
2019-03-29T02:24:36.490Z,0.00
2019-03-29T02:25:36.479Z,0.00
2019-03-29T02:26:36.467Z,0.00
2019-03-29T02:27:36.459Z,0.00
2019-03-29T02:28:36.760Z,0.00
2019-03-29T02:29:36.964Z,0.00
2019-03-29T02:30:36.438Z,0.00
2019-03-29T02:31:36.422Z,0.00
2019-03-29T02:32:36.412Z,0.00
2019-03-29T02:33:36.391Z,0.00
2019-03-29T02:34:36.429Z,0.00
2019-03-29T02:35:38.475Z,0.00
2019-03-29T02:36:36.361Z,0.00
2019-03-29T02:37:36.356Z,0.00
2019-03-29T02:38:47.494Z,0.00
2019-03-29T02:39:37.391Z,0.00
2019-03-29T02:40:36.332Z,0.00
2019-03-29T02:41:36.612Z,0.00
2019-03-29T02:42:36.308Z,0.00
2019-03-29T02:43:36.290Z,0.00
2019-03-29T02:44:36.289Z,0.00
2019-03-29T02:45:36.309Z,0.00
2019-03-29T02:46:36.281Z,0.00
2019-03-29T02:47:37.129Z,0.00
2019-03-29T02:48:36.548Z,0.00
2019-03-29T02:49:36.228Z,0.00
2019-03-29T02:50:36.844Z,0.00
2019-03-29T02:51:36.258Z,0.00
2019-03-29T02:52:36.202Z,0.00
2019-03-29T02:53:36.198Z,0.00
2019-03-29T02:54:36.182Z,0.00
2019-03-29T02:55:36.467Z,0.00
2019-03-29T02:56:36.158Z,0.00
2019-03-29T02:57:36.449Z,0.00
2019-03-29T02:58:36.145Z,0.00
2019-03-29T02:59:36.139Z,0.00
2019-03-29T03:01:57.652Z,0.00
2019-03-29T03:02:57.408Z,0.00
2019-03-29T03:03:57.409Z,0.00
2019-03-29T03:04:57.397Z,0.00
2019-03-29T03:05:57.396Z,0.00
2019-03-29T03:06:57.501Z,0.00
2019-03-29T03:07:57.689Z,0.00
2019-03-29T03:09:12.312Z,0.00
2019-03-29T03:09:58.345Z,0.00
2019-03-29T03:10:57.336Z,0.00
2019-03-29T03:11:57.318Z,0.00
2019-03-29T03:12:57.326Z,0.00
2019-03-29T03:13:57.347Z,0.00
2019-03-29T03:14:57.579Z,0.00
2019-03-29T03:15:57.276Z,0.00
2019-03-29T03:16:57.274Z,0.00
2019-03-29T03:17:57.257Z,0.00
2019-03-29T03:18:57.257Z,0.00
2019-03-29T03:19:57.576Z,0.00
2019-03-29T03:20:57.231Z,0.00
2019-03-29T03:21:57.505Z,0.00
2019-03-29T03:22:57.205Z,0.00
2019-03-29T03:23:57.197Z,0.00
2019-03-29T03:24:57.214Z,0.00
2019-03-29T03:25:57.234Z,0.00
2019-03-29T03:26:57.190Z,0.00
2019-03-29T03:27:57.156Z,0.00
2019-03-29T03:28:57.455Z,0.00
2019-03-29T03:29:57.137Z,0.00
2019-03-29T03:30:57.141Z,0.00
2019-03-29T03:31:57.178Z,0.00
2019-03-29T03:32:57.161Z,0.00
2019-03-29T03:33:57.094Z,0.00
2019-03-29T03:34:57.086Z,0.00
2019-03-29T03:35:57.385Z,0.00
2019-03-29T03:36:57.073Z,0.00
2019-03-29T03:37:57.134Z,0.00
2019-03-29T03:38:57.050Z,0.00
2019-03-29T03:39:57.044Z,0.00
2019-03-29T03:40:57.026Z,0.00
2019-03-29T03:41:57.013Z,0.00
2019-03-29T03:42:57.293Z,0.00
2019-03-29T03:43:57.048Z,0.00
2019-03-29T03:44:56.986Z,0.00
2019-03-29T03:45:56.976Z,0.00
2019-03-29T03:46:56.964Z,0.00
2019-03-29T03:47:56.969Z,0.00
2019-03-29T03:48:56.943Z,0.00
2019-03-29T03:50:00.626Z,0.00
2019-03-29T03:50:56.935Z,0.00
2019-03-29T03:51:56.902Z,0.00
2019-03-29T03:52:56.901Z,0.00
2019-03-29T03:53:56.889Z,0.00
2019-03-29T03:54:56.880Z,0.00
2019-03-29T03:55:57.461Z,0.00
2019-03-29T03:56:56.862Z,0.00
2019-03-29T03:57:57.889Z,0.00
2019-03-29T03:58:56.840Z,0.00
2019-03-29T03:59:56.831Z,0.00
2019-03-29T04:00:56.831Z,0.00
2019-03-29T04:01:56.932Z,0.00
2019-03-29T04:02:57.659Z,0.00
2019-03-29T04:03:56.787Z,0.00
2019-03-29T04:04:56.777Z,0.00
2019-03-29T04:05:56.772Z,0.00
2019-03-29T04:06:56.755Z,0.00
2019-03-29T04:07:56.838Z,0.00
2019-03-29T04:08:56.819Z,0.00
2019-03-29T04:09:57.031Z,0.00
2019-03-29T04:10:56.716Z,0.00
2019-03-29T04:11:56.698Z,0.00
2019-03-29T04:12:56.697Z,0.00
2019-03-29T04:13:56.771Z,0.00
2019-03-29T04:14:56.674Z,0.00
2019-03-29T04:15:56.676Z,0.00
2019-03-29T04:16:56.928Z,0.00
2019-03-29T04:17:56.637Z,0.00
2019-03-29T04:18:56.637Z,0.00
2019-03-29T04:19:56.681Z,0.00
2019-03-29T04:20:56.614Z,0.00
2019-03-29T04:21:56.596Z,0.00
2019-03-29T04:22:56.586Z,0.00
2019-03-29T04:23:56.874Z,0.00
2019-03-29T04:24:56.566Z,0.00
2019-03-29T04:25:56.703Z,0.00
2019-03-29T04:26:56.558Z,0.00
2019-03-29T04:27:56.536Z,0.00
2019-03-29T04:29:04.206Z,0.00
2019-03-29T04:29:57.525Z,0.00
2019-03-29T04:30:56.813Z,0.00
2019-03-29T04:31:56.566Z,0.00
2019-03-29T04:32:56.504Z,0.00
2019-03-29T04:33:56.495Z,0.00
2019-03-29T04:34:56.466Z,0.00
2019-03-29T04:35:56.456Z,0.00
2019-03-29T04:36:56.448Z,0.00
2019-03-29T04:37:56.775Z,0.00
2019-03-29T04:38:56.454Z,0.00
2019-03-29T04:40:07.025Z,0.00
2019-03-29T04:40:57.385Z,0.00
2019-03-29T04:41:56.382Z,0.00
2019-03-29T04:42:56.384Z,0.00
2019-03-29T04:43:56.413Z,0.00
2019-03-29T04:44:59.640Z,0.00
2019-03-29T04:45:56.346Z,0.00
2019-03-29T04:46:56.344Z,0.00
2019-03-29T04:47:56.313Z,0.00
2019-03-29T04:48:56.314Z,0.00
2019-03-29T04:49:56.369Z,0.00
2019-03-29T04:50:56.300Z,0.00
2019-03-29T04:51:56.591Z,0.00
2019-03-29T04:52:56.276Z,0.00
2019-03-29T04:53:56.286Z,0.00
2019-03-29T04:54:56.241Z,0.00
2019-03-29T04:55:56.275Z,0.00
2019-03-29T04:56:56.231Z,0.00
2019-03-29T04:57:56.212Z,0.00
2019-03-29T04:58:56.483Z,0.00
2019-03-29T04:59:56.191Z,0.00
2019-03-29T05:00:56.192Z,0.00
2019-03-29T05:01:56.220Z,0.00
2019-03-29T05:02:56.160Z,0.00
2019-03-29T05:03:56.150Z,0.00
2019-03-29T05:04:56.142Z,0.00
2019-03-29T05:05:57.440Z,0.00
2019-03-29T05:06:56.130Z,0.00
2019-03-29T05:07:56.170Z,0.00
2019-03-29T05:08:56.103Z,0.00
2019-03-29T05:09:56.089Z,0.00
2019-03-29T05:10:56.082Z,5.62
2019-03-29T05:11:56.089Z,5.62
2019-03-29T05:12:59.487Z,5.62
2019-03-29T05:13:56.117Z,5.62
2019-03-29T05:14:56.056Z,5.62
2019-03-29T05:15:56.067Z,5.62
2019-03-29T05:16:56.019Z,5.62
2019-03-29T05:17:56.067Z,5.62
2019-03-29T05:18:56.009Z,5.62
2019-03-29T05:19:56.320Z,5.62
2019-03-29T05:20:56.023Z,5.62
2019-03-29T05:21:55.985Z,11.25
2019-03-29T05:22:55.955Z,11.25
2019-03-29T05:23:56.043Z,11.25
2019-03-29T05:24:55.946Z,11.25
2019-03-29T05:25:56.136Z,11.25
2019-03-29T05:26:57.527Z,11.25
2019-03-29T05:27:55.926Z,11.25
2019-03-29T05:28:55.924Z,11.25
2019-03-29T05:29:55.883Z,16.88
2019-03-29T05:30:55.916Z,16.88
2019-03-29T05:31:55.923Z,16.88
2019-03-29T05:32:55.880Z,16.88
2019-03-29T05:33:57.096Z,16.88
2019-03-29T05:34:55.836Z,16.88
2019-03-29T05:35:55.862Z,16.88
2019-03-29T05:36:58.273Z,16.88
2019-03-29T05:37:55.893Z,22.50
2019-03-29T05:38:55.820Z,22.50
2019-03-29T05:39:55.802Z,22.50
2019-03-29T05:40:56.181Z,22.50
2019-03-29T05:41:55.754Z,22.50
2019-03-29T05:42:55.744Z,22.50
2019-03-29T05:43:55.795Z,22.50
2019-03-29T05:44:55.789Z,28.12
2019-03-29T05:45:55.724Z,28.12
2019-03-29T05:46:55.737Z,28.12
2019-03-29T05:47:56.030Z,28.12
2019-03-29T05:48:55.717Z,28.12
2019-03-29T05:49:55.758Z,28.12
2019-03-29T05:50:55.676Z,33.75
2019-03-29T05:51:55.684Z,33.75
2019-03-29T05:52:55.771Z,33.75
2019-03-29T05:53:55.695Z,33.75
2019-03-29T05:54:55.952Z,33.75
2019-03-29T05:55:55.747Z,33.75
2019-03-29T05:56:55.629Z,33.75
2019-03-29T05:57:55.600Z,39.38
2019-03-29T05:58:55.617Z,39.38
2019-03-29T05:59:55.678Z,39.38
2019-03-29T06:00:55.583Z,39.38
2019-03-29T06:01:55.622Z,39.38
2019-03-29T06:02:55.691Z,39.38
2019-03-29T06:03:55.535Z,45.00
2019-03-29T06:04:55.530Z,45.00
2019-03-29T06:05:55.520Z,45.00
2019-03-29T06:06:55.510Z,45.00
2019-03-29T06:07:56.030Z,45.00
2019-03-29T06:08:55.490Z,45.00
2019-03-29T06:09:55.473Z,45.00
2019-03-29T06:10:55.460Z,50.62
2019-03-29T06:11:55.450Z,50.62
2019-03-29T06:12:55.446Z,50.62
2019-03-29T06:13:55.481Z,50.62
2019-03-29T06:14:55.422Z,50.62
2019-03-29T06:15:55.430Z,50.62
2019-03-29T06:16:55.418Z,50.62
2019-03-29T06:17:55.417Z,56.25
2019-03-29T06:18:55.400Z,56.25
2019-03-29T06:19:55.797Z,56.25
2019-03-29T06:20:55.418Z,61.88
2019-03-29T06:21:55.361Z,67.50
2019-03-29T06:22:55.359Z,73.12
2019-03-29T06:23:55.327Z,73.12
2019-03-29T06:24:55.848Z,84.38
2019-03-29T06:25:57.399Z,84.38
2019-03-29T06:26:55.316Z,90.00
2019-03-29T06:27:55.300Z,90.00
2019-03-29T06:28:55.277Z,90.00
2019-03-29T06:29:55.284Z,90.00
2019-03-29T06:30:55.267Z,90.00
2019-03-29T06:31:56.088Z,95.62
2019-03-29T06:32:55.247Z,95.62
2019-03-29T06:33:55.233Z,101.25
2019-03-29T06:34:55.217Z,101.25
2019-03-29T06:35:55.488Z,101.25
2019-03-29T06:36:55.206Z,106.88
2019-03-29T06:37:55.543Z,106.88
2019-03-29T06:38:55.176Z,106.88
2019-03-29T06:39:55.166Z,106.88
2019-03-29T06:41:02.679Z,106.88
2019-03-29T06:41:56.227Z,112.50
2019-03-29T06:42:55.153Z,112.50
2019-03-29T06:43:55.145Z,118.12
2019-03-29T06:44:55.525Z,118.12
2019-03-29T06:45:55.866Z,118.12
2019-03-29T06:46:55.085Z,118.12
2019-03-29T06:47:55.081Z,123.75
2019-03-29T06:48:55.072Z,123.75
2019-03-29T06:49:55.122Z,123.75
2019-03-29T06:50:55.045Z,123.75
2019-03-29T06:51:55.324Z,129.38
2019-03-29T06:52:55.883Z,129.38
2019-03-29T06:53:55.890Z,129.38
2019-03-29T06:54:55.033Z,129.38
2019-03-29T06:55:55.082Z,129.38
2019-03-29T06:56:55.097Z,129.38
2019-03-29T06:57:55.288Z,129.38
2019-03-29T06:58:55.363Z,135.00
2019-03-29T06:59:54.960Z,135.00
2019-03-29T07:00:54.993Z,135.00
2019-03-29T07:01:54.976Z,135.00
2019-03-29T07:02:55.123Z,140.62
2019-03-29T07:03:55.072Z,140.62
2019-03-29T07:04:54.914Z,140.62
2019-03-29T07:05:55.515Z,146.25
2019-03-29T07:06:55.209Z,146.25
2019-03-29T07:07:55.131Z,146.25
2019-03-29T07:08:55.195Z,151.88
2019-03-29T07:09:55.513Z,151.88
2019-03-29T07:10:54.839Z,151.88
2019-03-29T07:11:54.825Z,151.88
2019-03-29T07:12:56.568Z,157.50
2019-03-29T07:13:57.675Z,157.50
2019-03-29T07:14:54.804Z,163.12
2019-03-29T07:15:54.803Z,163.12
2019-03-29T07:16:54.778Z,163.12
2019-03-29T07:17:54.786Z,168.75
2019-03-29T07:18:54.769Z,174.38
2019-03-29T07:19:55.630Z,174.38
2019-03-29T07:20:54.730Z,180.00
2019-03-29T07:21:54.732Z,180.00
2019-03-29T07:22:54.721Z,185.62
2019-03-29T07:23:54.706Z,191.25
2019-03-29T07:24:54.829Z,191.25
2019-03-29T07:25:56.458Z,196.88
2019-03-29T07:26:55.033Z,196.88
2019-03-29T07:27:54.721Z,196.88
2019-03-29T07:28:54.668Z,202.50
2019-03-29T07:29:54.639Z,208.12
2019-03-29T07:30:54.630Z,213.75
2019-03-29T07:31:54.845Z,213.75
2019-03-29T07:32:54.612Z,219.38
2019-03-29T07:33:55.030Z,219.38
2019-03-29T07:34:54.582Z,213.75
2019-03-29T07:35:54.581Z,225.00
2019-03-29T07:36:54.697Z,225.00
2019-03-29T07:37:54.589Z,230.62
2019-03-29T07:38:54.566Z,236.25
2019-03-29T07:39:54.576Z,241.88
2019-03-29T07:40:54.827Z,253.12
2019-03-29T07:41:54.520Z,258.75
2019-03-29T07:42:54.548Z,258.75
2019-03-29T07:43:55.096Z,264.38
2019-03-29T07:44:54.486Z,270.00
2019-03-29T07:45:54.479Z,275.62
2019-03-29T07:46:54.469Z,281.25
2019-03-29T07:47:54.474Z,286.88
2019-03-29T07:48:54.494Z,292.50
2019-03-29T07:49:54.683Z,298.12
2019-03-29T07:50:54.508Z,298.12
2019-03-29T07:51:54.417Z,298.12
2019-03-29T07:52:54.498Z,309.38
2019-03-29T07:53:55.761Z,309.38
2019-03-29T07:54:54.392Z,315.00
2019-03-29T07:55:54.389Z,320.62
2019-03-29T07:56:54.376Z,326.25
2019-03-29T07:57:54.346Z,326.25
2019-03-29T07:58:55.316Z,337.50
2019-03-29T07:59:57.316Z,348.75
2019-03-29T08:00:54.379Z,360.00
2019-03-29T08:01:54.370Z,382.50
2019-03-29T08:02:55.202Z,450.00
2019-03-29T08:03:54.285Z,641.25
2019-03-29T08:04:54.268Z,770.62
2019-03-29T08:05:55.780Z,843.75
2019-03-29T08:06:54.569Z,1006.88
2019-03-29T08:07:55.216Z,1119.38
2019-03-29T08:08:54.268Z,1057.50
2019-03-29T08:09:54.505Z,894.38
2019-03-29T08:10:54.928Z,736.88
2019-03-29T08:11:55.340Z,630.00
2019-03-29T08:12:54.190Z,562.50
2019-03-29T08:13:55.070Z,528.75
2019-03-29T08:14:54.799Z,506.25
2019-03-29T08:15:54.979Z,511.88
2019-03-29T08:16:54.820Z,500.62
2019-03-29T08:17:55.948Z,489.38
2019-03-29T08:18:54.517Z,489.38
2019-03-29T08:20:13.340Z,489.38
2019-03-29T08:20:55.567Z,489.38
2019-03-29T08:21:57.680Z,483.75
2019-03-29T08:22:55.631Z,483.75
2019-03-29T08:23:55.304Z,472.50
2019-03-29T08:24:54.391Z,478.12
2019-03-29T08:25:54.470Z,478.12
2019-03-29T08:26:55.098Z,489.38
2019-03-29T08:27:54.049Z,500.62
2019-03-29T08:28:54.419Z,585.00
2019-03-29T08:29:54.017Z,804.38
2019-03-29T08:30:53.998Z,911.25
2019-03-29T08:31:55.729Z,961.88
2019-03-29T08:32:53.977Z,1018.12
2019-03-29T08:33:53.978Z,1057.50
2019-03-29T08:34:53.957Z,1074.38
2019-03-29T08:35:53.973Z,1091.25
2019-03-29T08:36:53.940Z,1147.50
2019-03-29T08:37:54.638Z,1119.38
2019-03-29T08:38:53.909Z,1141.88
2019-03-29T08:39:56.453Z,1147.50
2019-03-29T08:40:54.500Z,1158.75
2019-03-29T08:41:59.929Z,1125.00
2019-03-29T08:42:55.039Z,1091.25
2019-03-29T08:43:53.858Z,1074.38
2019-03-29T08:44:54.748Z,1125.00
2019-03-29T08:45:57.444Z,1203.75
2019-03-29T08:46:54.360Z,1254.38
2019-03-29T08:47:55.489Z,1276.88
2019-03-29T08:48:54.863Z,1265.62
2019-03-29T08:49:56.599Z,1282.50
2019-03-29T08:50:54.951Z,1282.50
2019-03-29T08:51:55.004Z,1276.88
2019-03-29T08:52:54.087Z,1293.75
2019-03-29T08:53:54.201Z,1310.62
2019-03-29T08:54:54.092Z,1327.50
2019-03-29T08:55:53.950Z,1316.25
2019-03-29T08:56:53.764Z,1327.50
2019-03-29T08:57:53.754Z,1305.00
2019-03-29T08:58:54.375Z,1254.38
2019-03-29T08:59:54.000Z,1226.25
2019-03-29T09:00:55.082Z,1226.25
2019-03-29T09:01:54.045Z,1305.00
2019-03-29T09:02:53.662Z,1254.38
2019-03-29T09:04:04.875Z,877.50
2019-03-29T09:04:54.701Z,438.75
2019-03-29T09:05:54.020Z,202.50
2019-03-29T09:06:54.365Z,196.88
2019-03-29T09:07:53.619Z,191.25
2019-03-29T09:08:54.795Z,191.25
2019-03-29T09:09:53.591Z,191.25
2019-03-29T09:10:53.602Z,191.25
2019-03-29T09:11:53.605Z,191.25
2019-03-29T09:12:53.600Z,191.25
2019-03-29T09:13:53.608Z,191.25
2019-03-29T09:14:53.539Z,196.88
2019-03-29T09:15:53.531Z,196.88
2019-03-29T09:16:53.600Z,196.88
2019-03-29T09:17:53.508Z,196.88
2019-03-29T09:18:54.110Z,196.88
2019-03-29T09:19:53.526Z,196.88
2019-03-29T09:20:53.521Z,196.88
2019-03-29T09:21:53.536Z,196.88
2019-03-29T09:22:53.470Z,196.88
2019-03-29T09:23:53.463Z,196.88
2019-03-29T09:24:53.534Z,202.50
2019-03-29T09:25:53.811Z,202.50
2019-03-29T09:26:53.428Z,202.50
2019-03-29T09:27:54.038Z,202.50
2019-03-29T09:28:53.724Z,202.50
2019-03-29T09:29:53.731Z,208.12
2019-03-29T09:30:56.504Z,208.12
2019-03-29T09:31:54.456Z,208.12
2019-03-29T09:32:53.909Z,208.12
2019-03-29T09:33:58.417Z,208.12
2019-03-29T09:34:53.807Z,208.12
2019-03-29T09:35:53.801Z,208.12
2019-03-29T09:36:54.925Z,208.12
2019-03-29T09:37:56.434Z,208.12
2019-03-29T09:38:53.423Z,219.38
2019-03-29T09:39:53.278Z,208.12
2019-03-29T09:40:58.696Z,208.12
2019-03-29T09:41:54.701Z,213.75
2019-03-29T09:43:06.862Z,213.75
2019-03-29T09:43:54.797Z,213.75
2019-03-29T09:44:53.671Z,213.75
2019-03-29T09:45:53.227Z,213.75
2019-03-29T09:46:53.211Z,213.75
2019-03-29T09:47:55.757Z,219.38
2019-03-29T09:48:54.046Z,219.38
2019-03-29T09:49:53.652Z,219.38
2019-03-29T09:50:53.992Z,219.38
2019-03-29T09:51:53.173Z,219.38
2019-03-29T09:52:53.144Z,219.38
2019-03-29T09:53:53.138Z,219.38
2019-03-29T09:54:54.124Z,219.38
2019-03-29T09:55:53.624Z,219.38
2019-03-29T09:56:53.460Z,219.38
2019-03-29T09:57:53.091Z,225.00
2019-03-29T09:58:53.179Z,225.00
2019-03-29T09:59:53.491Z,225.00
2019-03-29T10:00:53.110Z,225.00
2019-03-29T10:01:54.237Z,219.38
2019-03-29T10:02:53.067Z,225.00
2019-03-29T10:03:53.551Z,225.00
2019-03-29T10:04:53.985Z,225.00
2019-03-29T10:05:53.444Z,225.00
2019-03-29T10:06:55.120Z,225.00
2019-03-29T10:07:53.300Z,230.62
2019-03-29T10:08:53.770Z,230.62
2019-03-29T10:09:53.858Z,225.00
2019-03-29T10:10:53.275Z,225.00
2019-03-29T10:11:53.275Z,230.62
2019-03-29T10:12:53.781Z,230.62
2019-03-29T10:13:52.960Z,230.62
2019-03-29T10:14:52.941Z,236.25
2019-03-29T10:15:52.897Z,230.62
2019-03-29T10:16:53.002Z,236.25
2019-03-29T10:17:53.302Z,236.25
2019-03-29T10:18:54.107Z,236.25
2019-03-29T10:19:53.818Z,236.25
2019-03-29T10:20:52.840Z,241.88
2019-03-29T10:21:52.870Z,241.88
2019-03-29T10:22:53.812Z,241.88
2019-03-29T10:23:52.986Z,241.88
2019-03-29T10:24:53.340Z,247.50
2019-03-29T10:25:52.792Z,247.50
2019-03-29T10:26:52.781Z,253.12
2019-03-29T10:27:52.941Z,258.75
2019-03-29T10:28:52.831Z,376.88
2019-03-29T10:29:52.759Z,900.00
2019-03-29T10:30:52.891Z,1462.50
2019-03-29T10:31:52.739Z,1597.50
2019-03-29T10:32:55.336Z,1715.62
2019-03-29T10:33:52.723Z,1749.38
2019-03-29T10:34:52.735Z,1670.62
2019-03-29T10:35:53.203Z,1558.12
2019-03-29T10:36:52.770Z,1552.50
2019-03-29T10:37:54.095Z,1631.25
2019-03-29T10:38:52.696Z,1743.75
2019-03-29T10:39:52.683Z,1822.50
2019-03-29T10:40:53.183Z,1884.38
2019-03-29T10:41:52.620Z,1906.88
2019-03-29T10:42:58.209Z,1940.62
2019-03-29T10:43:53.646Z,1963.12
2019-03-29T10:44:53.072Z,1929.38
2019-03-29T10:45:52.610Z,1867.50
2019-03-29T10:46:52.573Z,1867.50
2019-03-29T10:47:53.011Z,1895.62
2019-03-29T10:48:52.677Z,1923.75
2019-03-29T10:49:52.611Z,1935.00
2019-03-29T10:50:52.521Z,1963.12
2019-03-29T10:51:52.917Z,1929.38
2019-03-29T10:52:52.563Z,1890.00
2019-03-29T10:53:52.674Z,1946.25
2019-03-29T10:54:52.571Z,2047.50
2019-03-29T10:55:52.639Z,2030.62
2019-03-29T10:56:52.499Z,1996.88
2019-03-29T10:57:52.514Z,1991.25
2019-03-29T10:58:52.483Z,2030.62
2019-03-29T10:59:52.476Z,2030.62
2019-03-29T11:00:52.482Z,1968.75
2019-03-29T11:01:52.427Z,1991.25
2019-03-29T11:02:52.414Z,2025.00
2019-03-29T11:03:52.432Z,2053.12
2019-03-29T11:04:53.304Z,2053.12
2019-03-29T11:05:52.396Z,2036.25
2019-03-29T11:06:52.447Z,2025.00
2019-03-29T11:07:52.539Z,2070.00
2019-03-29T11:08:52.367Z,2098.12
2019-03-29T11:09:52.495Z,2137.50
2019-03-29T11:10:52.332Z,2086.88
2019-03-29T11:11:52.697Z,2047.50
2019-03-29T11:12:52.364Z,2098.12
2019-03-29T11:13:52.342Z,2086.88
2019-03-29T11:14:52.307Z,2064.38
2019-03-29T11:15:52.329Z,2036.25
2019-03-29T11:16:52.311Z,2030.62
2019-03-29T11:17:52.324Z,2053.12
2019-03-29T11:18:52.806Z,2098.12
2019-03-29T11:19:52.265Z,2143.12
2019-03-29T11:20:52.260Z,2137.50
2019-03-29T11:21:52.230Z,2025.00
2019-03-29T11:22:52.816Z,1940.62
2019-03-29T11:23:52.474Z,2047.50
2019-03-29T11:24:52.939Z,2131.88
2019-03-29T11:25:53.340Z,2143.12
2019-03-29T11:26:52.570Z,2143.12
2019-03-29T11:27:53.097Z,2137.50
2019-03-29T11:28:53.142Z,2120.62
2019-03-29T11:29:53.213Z,2143.12
2019-03-29T11:30:57.051Z,2092.50
2019-03-29T11:31:52.999Z,2092.50
2019-03-29T11:32:52.839Z,2086.88
2019-03-29T11:33:52.860Z,2086.88
2019-03-29T11:34:52.657Z,2154.38
2019-03-29T11:35:52.081Z,2143.12
2019-03-29T11:36:52.835Z,2154.38
2019-03-29T11:37:52.062Z,2165.62
2019-03-29T11:38:52.077Z,2137.50
2019-03-29T11:39:52.428Z,2064.38
2019-03-29T11:40:53.116Z,1929.38
2019-03-29T11:41:52.029Z,1822.50
2019-03-29T11:42:52.152Z,1800.00
2019-03-29T11:43:52.070Z,1901.25
2019-03-29T11:44:52.534Z,1991.25
2019-03-29T11:45:51.990Z,2036.25
2019-03-29T11:46:52.862Z,2131.88
2019-03-29T11:47:52.003Z,2160.00
2019-03-29T11:48:51.990Z,2193.75
2019-03-29T11:49:55.267Z,2210.62
2019-03-29T11:50:52.093Z,2064.38
2019-03-29T11:51:51.939Z,1974.38
2019-03-29T11:52:52.233Z,2120.62
2019-03-29T11:53:52.330Z,2205.00
2019-03-29T11:54:52.012Z,2086.88
2019-03-29T11:55:52.576Z,2070.00
2019-03-29T11:56:52.451Z,2103.75
2019-03-29T11:57:55.675Z,2165.62
2019-03-29T11:58:52.928Z,2221.88
2019-03-29T11:59:52.308Z,2233.12
2019-03-29T12:00:53.037Z,2193.75
2019-03-29T12:01:51.842Z,2182.50
2019-03-29T12:02:51.832Z,2227.50
2019-03-29T12:03:51.972Z,2199.38
2019-03-29T12:04:51.813Z,2160.00
2019-03-29T12:05:52.493Z,2126.25
2019-03-29T12:06:51.835Z,2143.12
2019-03-29T12:07:53.065Z,2193.75
2019-03-29T12:08:51.846Z,2188.12
2019-03-29T12:09:52.617Z,2176.88
2019-03-29T12:10:52.269Z,2182.50
2019-03-29T12:11:52.635Z,2148.75
2019-03-29T12:12:53.263Z,2176.88
2019-03-29T12:14:04.995Z,2182.50
2019-03-29T12:14:52.919Z,2131.88
2019-03-29T12:15:52.899Z,2143.12
2019-03-29T12:16:51.695Z,2193.75
2019-03-29T12:17:51.694Z,2188.12
2019-03-29T12:18:52.416Z,2171.25
2019-03-29T12:19:52.284Z,2244.38
2019-03-29T12:20:54.314Z,2250.00
2019-03-29T12:21:52.134Z,2244.38
2019-03-29T12:22:51.946Z,2188.12
2019-03-29T12:23:51.846Z,2154.38
2019-03-29T12:24:52.138Z,2120.62
2019-03-29T12:25:51.684Z,2126.25
2019-03-29T12:26:55.006Z,2148.75
2019-03-29T12:27:51.576Z,2126.25
2019-03-29T12:28:51.574Z,2075.62
2019-03-29T12:29:51.590Z,2008.12
2019-03-29T12:30:52.557Z,2047.50
2019-03-29T12:31:52.549Z,2115.00
2019-03-29T12:32:51.896Z,2143.12
2019-03-29T12:33:51.969Z,2160.00
2019-03-29T12:34:51.561Z,2120.62
2019-03-29T12:35:53.326Z,2047.50
2019-03-29T12:36:52.814Z,2036.25
2019-03-29T12:37:52.380Z,2070.00
2019-03-29T12:38:51.927Z,2064.38
2019-03-29T12:39:53.118Z,2148.75
2019-03-29T12:40:51.898Z,2143.12
2019-03-29T12:41:51.687Z,2182.50
2019-03-29T12:42:52.203Z,2126.25
2019-03-29T12:43:55.701Z,2025.00
2019-03-29T12:44:51.597Z,2036.25
2019-03-29T12:45:52.239Z,2126.25
2019-03-29T12:46:51.463Z,2154.38